createdAt,value
2022-08-27T00:01:46.556Z,3.40
2022-08-27T00:11:47.608Z,3.28
2022-08-27T00:14:35.531Z,3.78
2022-08-27T00:18:09.416Z,3.35
2022-08-27T00:20:39.667Z,4.22
2022-08-27T00:23:09.433Z,3.60
2022-08-27T00:25:39.167Z,4.43
2022-08-27T00:31:27.505Z,3.95
2022-08-27T00:33:58.871Z,4.00
2022-08-27T00:36:29.479Z,4.25
2022-08-27T00:38:59.215Z,4.22
2022-08-27T00:41:28.999Z,5.63
2022-08-27T00:44:01.389Z,5.07
2022-08-27T00:46:46.571Z,4.82
2022-08-27T00:49:22.168Z,4.95
2022-08-27T00:54:29.532Z,4.20
2022-08-27T00:57:01.964Z,4.90
2022-08-27T00:59:34.943Z,4.45
2022-08-27T01:02:20.391Z,4.45
2022-08-27T01:05:12.141Z,4.50
2022-08-27T01:07:45.397Z,4.78
2022-08-27T01:10:19.061Z,4.68
2022-08-27T01:12:53.658Z,5.10
2022-08-27T01:15:27.017Z,4.70
2022-08-27T01:17:58.733Z,3.88
2022-08-27T01:20:39.569Z,4.60
2022-08-27T01:23:36.488Z,4.18
2022-08-27T01:26:09.991Z,4.25
2022-08-27T01:28:40.597Z,4.53
2022-08-27T01:31:12.867Z,4.63
2022-08-27T01:33:54.392Z,4.40
2022-08-27T01:36:24.510Z,4.85
2022-08-27T01:38:54.250Z,4.57
2022-08-27T01:41:25.478Z,4.43
2022-08-27T01:43:55.600Z,5.30
2022-08-27T01:46:29.254Z,4.95
2022-08-27T01:48:59.681Z,5.78
2022-08-27T01:51:29.539Z,5.38
2022-08-27T01:53:59.270Z,5.75
2022-08-27T01:56:29.014Z,4.85
2022-08-27T01:58:58.780Z,5.38
2022-08-27T02:01:29.011Z,4.80
2022-08-27T02:03:59.042Z,5.78
2022-08-27T02:06:28.754Z,5.32
2022-08-27T02:08:58.463Z,4.40
2022-08-27T02:11:28.206Z,5.05
2022-08-27T02:13:57.945Z,4.72
2022-08-27T02:16:27.755Z,5.75
2022-08-27T02:18:57.858Z,5.53
2022-08-27T02:21:28.115Z,5.45
2022-08-27T02:23:57.915Z,5.25
2022-08-27T02:26:28.773Z,5.07
2022-08-27T02:28:58.858Z,6.07
2022-08-27T02:31:28.910Z,5.50
2022-08-27T02:33:59.125Z,5.78
2022-08-27T02:36:29.656Z,5.13
2022-08-27T02:38:59.424Z,5.22
2022-08-27T02:41:29.635Z,5.38
2022-08-27T02:44:01.105Z,5.45
2022-08-27T02:46:31.562Z,5.35
2022-08-27T02:49:01.340Z,6.30
2022-08-27T02:51:31.277Z,5.95
2022-08-27T02:54:02.585Z,6.90
2022-08-27T02:56:34.172Z,6.55
2022-08-27T02:59:04.312Z,5.70
2022-08-27T03:01:34.367Z,6.72
2022-08-27T03:04:04.292Z,6.70
2022-08-27T03:06:34.008Z,6.65
2022-08-27T03:09:04.085Z,6.47
2022-08-27T03:11:34.965Z,5.57
2022-08-27T03:14:05.285Z,6.97
2022-08-27T03:16:39.346Z,6.70
2022-08-27T03:19:10.162Z,5.88
2022-08-27T03:21:40.170Z,6.25
2022-08-27T03:24:11.735Z,5.60
2022-08-27T03:26:53.690Z,5.65
2022-08-27T03:29:24.264Z,5.57
2022-08-27T03:31:54.029Z,5.25
2022-08-27T03:34:23.822Z,6.65
2022-08-27T03:36:54.424Z,6.05
2022-08-27T03:39:24.149Z,5.38
2022-08-27T03:41:55.321Z,6.47
2022-08-27T03:44:27.249Z,6.35
2022-08-27T03:46:57.228Z,5.97
2022-08-27T03:49:26.949Z,7.00
2022-08-27T03:51:56.736Z,6.07
2022-08-27T03:54:27.904Z,6.65
2022-08-27T03:56:58.127Z,6.10
2022-08-27T03:59:27.838Z,6.28
2022-08-27T04:01:58.761Z,6.20
2022-08-27T04:04:29.102Z,6.43
2022-08-27T04:06:59.505Z,7.18
2022-08-27T04:09:29.517Z,6.55
2022-08-27T04:11:59.428Z,7.13
2022-08-27T04:14:29.208Z,7.53
2022-08-27T04:16:59.143Z,6.65
2022-08-27T04:19:34.233Z,6.38
2022-08-27T04:22:07.726Z,7.40
2022-08-27T04:24:39.392Z,7.90
2022-08-27T04:27:09.477Z,6.97
2022-08-27T04:29:39.844Z,6.88
2022-08-27T04:32:10.203Z,8.63
2022-08-27T04:34:40.100Z,8.52
2022-08-27T04:37:10.295Z,6.68
2022-08-27T04:39:40.508Z,8.00
2022-08-27T04:42:10.240Z,8.00
2022-08-27T04:44:40.341Z,8.18
2022-08-27T04:47:10.059Z,8.45
2022-08-27T04:49:39.808Z,7.57
2022-08-27T04:52:11.223Z,7.32
2022-08-27T04:54:41.013Z,7.43
2022-08-27T04:57:11.039Z,7.90
2022-08-27T04:59:41.042Z,9.52
2022-08-27T05:02:11.966Z,8.23
2022-08-27T05:04:42.961Z,8.43
2022-08-27T05:07:13.084Z,8.88
2022-08-27T05:09:43.137Z,8.52
2022-08-27T05:12:12.870Z,8.30
2022-08-27T05:14:42.609Z,9.25
2022-08-27T05:17:12.382Z,8.80
2022-08-27T05:19:42.104Z,8.57
2022-08-27T05:22:11.902Z,7.93
2022-08-27T05:24:41.631Z,8.27
2022-08-27T05:27:13.075Z,7.95
2022-08-27T05:29:43.364Z,8.75
2022-08-27T05:32:13.109Z,8.32
2022-08-27T05:34:42.861Z,8.48
2022-08-27T05:37:12.698Z,7.72
2022-08-27T05:39:42.400Z,8.20
2022-08-27T05:42:12.435Z,9.20
2022-08-27T05:44:42.626Z,8.52
2022-08-27T05:47:12.499Z,8.88
2022-08-27T05:49:42.288Z,8.40
2022-08-27T05:52:14.681Z,8.68
2022-08-27T05:54:44.895Z,8.00
2022-08-27T05:57:15.242Z,9.15
2022-08-27T06:00:03.095Z,7.70
2022-08-27T06:02:41.802Z,9.35
2022-08-27T06:05:11.846Z,8.30
2022-08-27T06:07:41.628Z,9.15
2022-08-27T06:10:12.801Z,9.20
2022-08-27T06:12:42.798Z,8.73
2022-08-27T06:15:13.157Z,8.77
2022-08-27T06:17:42.984Z,7.65
2022-08-27T06:22:42.096Z,8.57
2022-08-27T06:25:11.806Z,7.70
2022-08-27T06:27:41.924Z,7.40
2022-08-27T06:30:15.729Z,8.93
2022-08-27T06:32:47.723Z,8.32
2022-08-27T06:35:17.597Z,8.52
2022-08-27T06:37:47.335Z,7.97
2022-08-27T06:40:17.138Z,8.27
2022-08-27T06:42:47.085Z,8.43
2022-08-27T06:45:16.940Z,8.25
2022-08-27T06:47:46.681Z,9.10
2022-08-27T06:50:19.721Z,9.20
2022-08-27T06:52:50.696Z,8.43
2022-08-27T06:55:20.482Z,8.40
2022-08-27T06:57:51.261Z,9.05
2022-08-27T07:00:21.208Z,8.15
2022-08-27T07:02:52.554Z,7.57
2022-08-27T07:05:22.647Z,7.80
2022-08-27T07:07:52.618Z,8.40
2022-08-27T07:10:22.400Z,10.00
2022-08-27T07:12:55.163Z,8.25
2022-08-27T07:15:25.740Z,7.82
2022-08-27T07:17:59.803Z,7.78
2022-08-27T07:20:33.045Z,9.45
2022-08-27T07:23:02.971Z,8.82
2022-08-27T07:25:33.949Z,9.20
2022-08-27T07:28:04.236Z,9.15
2022-08-27T07:30:34.145Z,9.10
2022-08-27T07:33:04.029Z,8.90
2022-08-27T07:35:34.761Z,7.72
2022-08-27T07:38:04.672Z,7.70
2022-08-27T07:40:35.615Z,9.38
2022-08-27T07:43:27.076Z,8.50
2022-08-27T07:45:59.946Z,7.05
2022-08-27T07:48:30.938Z,7.78
2022-08-27T07:51:02.757Z,7.60
2022-08-27T07:53:34.324Z,7.45
2022-08-27T07:56:09.317Z,7.57
2022-08-27T07:58:39.858Z,8.27
2022-08-27T08:01:10.048Z,8.60
2022-08-27T08:03:40.464Z,7.03
2022-08-27T08:06:16.149Z,7.13
2022-08-27T08:08:46.691Z,7.22
2022-08-27T08:11:19.460Z,7.85
2022-08-27T08:13:50.216Z,7.65
2022-08-27T08:16:19.985Z,7.43
2022-08-27T08:18:49.757Z,6.85
2022-08-27T08:21:19.528Z,6.50
2022-08-27T08:23:50.399Z,7.53
2022-08-27T08:26:20.755Z,7.10
2022-08-27T08:28:51.389Z,6.97
2022-08-27T08:31:21.813Z,6.72
2022-08-27T08:33:52.024Z,7.13
2022-08-27T08:36:21.942Z,8.02
2022-08-27T08:38:52.068Z,6.85
2022-08-27T08:41:33.836Z,6.80
2022-08-27T08:44:24.221Z,6.95
2022-08-27T08:47:13.482Z,7.53
2022-08-27T08:50:04.885Z,7.97
2022-08-27T08:52:42.441Z,6.07
2022-08-27T08:55:20.022Z,5.88
2022-08-27T08:58:16.308Z,6.25
2022-08-27T09:00:50.299Z,6.13
2022-08-27T09:03:20.243Z,6.63
2022-08-27T09:06:03.552Z,6.45
2022-08-27T09:08:41.838Z,5.93
2022-08-27T09:11:31.191Z,5.70
2022-08-27T09:14:10.338Z,6.10
2022-08-27T09:19:13.165Z,4.82
2022-08-27T09:21:50.579Z,6.85
2022-08-27T09:24:27.413Z,6.05
2022-08-27T09:26:57.579Z,5.63
2022-08-27T09:29:30.219Z,5.25
2022-08-27T09:32:11.680Z,5.68
2022-08-27T09:34:45.415Z,6.20
2022-08-27T09:37:21.579Z,5.95
2022-08-27T09:40:22.564Z,6.45
2022-08-27T09:42:59.151Z,6.38
2022-08-27T09:45:31.166Z,5.28
2022-08-27T09:48:16.220Z,5.72
2022-08-27T09:50:58.676Z,5.28
2022-08-27T09:53:47.099Z,5.00
2022-08-27T09:56:35.724Z,5.57
2022-08-27T09:59:09.223Z,6.18
2022-08-27T10:02:00.104Z,5.65
2022-08-27T10:04:50.521Z,5.60
2022-08-27T10:07:40.928Z,5.78
2022-08-27T10:10:42.963Z,6.00
2022-08-27T10:13:21.314Z,5.13
2022-08-27T10:16:08.338Z,5.32
2022-08-27T10:18:45.940Z,5.32
2022-08-27T10:21:41.430Z,4.97
2022-08-27T10:24:24.348Z,4.55
2022-08-27T10:27:20.571Z,5.47
2022-08-27T10:30:08.744Z,6.00
2022-08-27T10:32:57.796Z,5.50
2022-08-27T10:35:47.967Z,5.57
2022-08-27T10:38:29.948Z,5.38
2022-08-27T10:41:29.704Z,5.45
2022-08-27T10:44:21.627Z,5.75
2022-08-27T10:47:14.159Z,6.00
2022-08-27T10:50:02.166Z,4.95
2022-08-27T10:52:43.219Z,5.43
2022-08-27T10:55:25.071Z,5.15
2022-08-27T11:01:15.484Z,3.95
2022-08-27T11:03:57.815Z,4.70
2022-08-27T11:06:59.884Z,5.38
2022-08-27T11:09:56.608Z,4.50
2022-08-27T11:12:32.609Z,5.55
2022-08-27T11:15:22.758Z,5.20
2022-08-27T11:18:10.467Z,5.45
2022-08-27T11:21:20.182Z,5.53
2022-08-27T11:24:00.608Z,5.38
2022-08-27T11:26:34.542Z,5.32
2022-08-27T11:29:15.736Z,4.40
2022-08-27T11:31:54.676Z,5.28
2022-08-27T11:34:27.777Z,5.00
2022-08-27T11:37:12.946Z,4.90
2022-08-27T11:40:02.324Z,4.55
2022-08-27T11:42:42.344Z,4.65
2022-08-27T11:45:32.131Z,5.88
2022-08-27T11:48:23.422Z,4.68
2022-08-27T11:51:05.049Z,4.53
2022-08-27T11:53:51.831Z,4.65
2022-08-27T11:56:44.901Z,5.07
2022-08-27T11:59:34.724Z,5.20
2022-08-27T12:02:33.645Z,5.18
2022-08-27T12:05:26.311Z,5.63
2022-08-27T12:07:56.883Z,5.22
2022-08-27T12:10:53.011Z,6.97
2022-08-27T12:13:27.661Z,4.93
2022-08-27T12:16:05.339Z,4.93
2022-08-27T12:18:52.878Z,4.80
2022-08-27T12:21:50.991Z,4.43
2022-08-27T12:24:50.992Z,6.20
2022-08-27T12:27:25.803Z,5.15
2022-08-27T12:29:55.577Z,5.93
2022-08-27T12:32:36.052Z,4.70
2022-08-27T12:35:17.274Z,4.97
2022-08-27T12:37:51.525Z,5.00
2022-08-27T12:40:29.964Z,5.43
2022-08-27T12:43:08.469Z,4.28
2022-08-27T12:45:51.277Z,5.40
2022-08-27T12:48:25.625Z,4.35
2022-08-27T12:50:59.815Z,4.68
2022-08-27T12:53:44.804Z,3.97
2022-08-27T12:56:41.979Z,4.00
2022-08-27T12:59:34.326Z,4.47
2022-08-27T13:02:07.212Z,4.88
2022-08-27T13:04:41.127Z,4.20
2022-08-27T13:07:11.488Z,4.22
2022-08-27T13:09:42.015Z,4.15
2022-08-27T13:12:20.849Z,4.10
2022-08-27T13:14:56.955Z,4.70
2022-08-27T13:17:28.655Z,4.72
2022-08-27T13:20:01.272Z,4.43
2022-08-27T13:22:39.849Z,4.10
2022-08-27T13:25:25.845Z,4.20
2022-08-27T13:28:11.615Z,4.10
2022-08-27T13:30:46.089Z,4.13
2022-08-27T13:33:31.431Z,5.65
2022-08-27T13:36:02.470Z,4.10
2022-08-27T13:38:37.610Z,4.22
2022-08-27T13:41:14.163Z,4.30
2022-08-27T13:43:47.061Z,4.10
2022-08-27T13:46:22.155Z,4.13
2022-08-27T13:48:56.093Z,4.03
2022-08-27T13:51:34.642Z,4.03
2022-08-27T13:54:14.512Z,4.07
2022-08-27T13:56:52.061Z,3.60
2022-08-27T13:59:22.540Z,3.75
2022-08-27T14:02:03.413Z,3.50
2022-08-27T14:04:43.681Z,3.60
2022-08-27T14:07:16.873Z,3.40
2022-08-27T14:09:54.630Z,3.13
2022-08-27T14:12:36.515Z,3.40
2022-08-27T14:15:25.630Z,2.83
2022-08-27T14:17:56.328Z,2.92
2022-08-27T14:20:26.136Z,2.70
2022-08-27T14:22:56.805Z,2.92
2022-08-27T14:25:27.219Z,3.30
2022-08-27T14:27:58.404Z,4.47
2022-08-27T14:30:30.243Z,3.08
2022-08-27T14:33:02.506Z,3.53
2022-08-27T14:35:35.104Z,3.15
2022-08-27T14:38:15.724Z,6.25
2022-08-27T14:40:46.697Z,2.72
2022-08-27T14:43:17.273Z,3.45
2022-08-27T14:45:50.440Z,4.35
2022-08-27T14:48:28.935Z,3.05
2022-08-27T14:51:00.274Z,3.33
2022-08-27T14:53:32.674Z,3.40
2022-08-27T14:56:03.459Z,3.35
2022-08-27T14:58:33.662Z,2.80
2022-08-27T15:01:06.242Z,3.17
2022-08-27T15:03:40.595Z,3.03
2022-08-27T15:06:10.629Z,2.80
2022-08-27T15:08:40.417Z,3.50
2022-08-27T15:11:24.779Z,2.80
2022-08-27T15:13:55.830Z,2.50
2022-08-27T15:16:37.944Z,2.88
2022-08-27T15:19:11.435Z,2.95
2022-08-27T15:21:42.710Z,2.63
2022-08-27T15:24:29.367Z,2.92
2022-08-27T15:26:59.862Z,2.88
2022-08-27T15:29:29.672Z,2.92
2022-08-27T15:31:59.393Z,3.22
2022-08-27T15:34:29.241Z,3.10
2022-08-27T15:36:59.112Z,3.33
2022-08-27T15:39:28.891Z,2.75
2022-08-27T15:42:08.606Z,2.60
2022-08-27T15:44:43.609Z,2.65
2022-08-27T15:47:17.617Z,2.80
2022-08-27T15:49:49.743Z,3.00
2022-08-27T15:52:22.347Z,3.00
2022-08-27T15:54:52.820Z,2.97
2022-08-27T15:57:23.377Z,2.78
2022-08-27T15:59:53.348Z,2.33
2022-08-27T16:02:25.621Z,3.03
2022-08-27T16:04:56.517Z,2.65
2022-08-27T16:07:26.232Z,2.70
2022-08-27T16:09:56.155Z,2.47
2022-08-27T16:12:27.308Z,3.45
2022-08-27T16:14:58.035Z,3.03
2022-08-27T16:17:28.320Z,2.60
2022-08-27T16:19:58.349Z,3.15
2022-08-27T16:22:28.135Z,2.80
2022-08-27T16:24:57.932Z,2.97
2022-08-27T16:27:27.668Z,2.67
2022-08-27T16:29:57.577Z,2.60
2022-08-27T16:32:30.113Z,2.83
2022-08-27T16:35:01.640Z,2.50
2022-08-27T16:37:31.869Z,2.30
2022-08-27T16:40:01.650Z,2.55
2022-08-27T16:42:31.457Z,2.90
2022-08-27T16:45:01.723Z,2.90
2022-08-27T16:47:31.426Z,4.45
2022-08-27T16:50:24.170Z,2.97
2022-08-27T16:52:57.316Z,2.97
2022-08-27T16:55:28.133Z,2.65
2022-08-27T16:57:58.673Z,2.65
2022-08-27T17:00:31.489Z,2.40
2022-08-27T17:03:02.132Z,2.90
2022-08-27T17:05:33.924Z,2.67
2022-08-27T17:08:06.487Z,2.60
2022-08-27T17:10:46.775Z,2.90
2022-08-27T17:13:20.750Z,2.65
2022-08-27T17:15:53.312Z,2.42
2022-08-27T17:18:28.336Z,2.58
2022-08-27T17:23:42.473Z,2.50
2022-08-27T17:26:14.732Z,2.33
2022-08-27T17:29:06.377Z,2.53
2022-08-27T17:31:44.043Z,2.40
2022-08-27T17:34:23.778Z,2.58
2022-08-27T17:36:55.827Z,2.45
2022-08-27T17:39:30.084Z,3.80
2022-08-27T17:42:01.381Z,2.22
2022-08-27T17:44:37.318Z,2.20
2022-08-27T17:47:09.697Z,2.80
2022-08-27T17:49:41.501Z,2.72
2022-08-27T17:52:16.213Z,2.65
2022-08-27T17:54:52.139Z,2.50
2022-08-27T17:57:28.667Z,3.15
2022-08-27T18:00:04.170Z,2.80
2022-08-27T18:02:52.252Z,2.53
2022-08-27T18:05:25.308Z,2.40
2022-08-27T18:07:58.770Z,2.58
2022-08-27T18:10:39.062Z,2.35
2022-08-27T18:13:10.227Z,2.30
2022-08-27T18:15:42.894Z,2.50
2022-08-27T18:18:14.858Z,25.27
2022-08-27T18:20:47.036Z,2.65
2022-08-27T18:23:17.368Z,2.53
2022-08-27T18:25:47.542Z,2.55
2022-08-27T18:28:20.321Z,7.72
2022-08-27T18:30:52.295Z,2.58
2022-08-27T18:33:22.894Z,2.72
2022-08-27T18:35:53.946Z,3.75
2022-08-27T18:38:25.174Z,2.72
2022-08-27T18:40:56.317Z,2.13
2022-08-27T18:43:34.289Z,2.53
2022-08-27T18:46:07.224Z,5.60
2022-08-27T18:48:37.856Z,2.60
2022-08-27T18:51:10.516Z,2.90
2022-08-27T18:53:41.741Z,2.72
2022-08-27T18:56:16.848Z,3.20
2022-08-27T18:58:47.691Z,2.60
2022-08-27T19:01:21.563Z,2.40
2022-08-27T19:03:53.537Z,3.40
2022-08-27T19:06:24.391Z,2.67
2022-08-27T19:08:55.141Z,3.30
2022-08-27T19:11:25.447Z,2.22
2022-08-27T19:13:55.257Z,2.42
2022-08-27T19:16:59.824Z,2.58
2022-08-27T19:19:32.691Z,3.40
2022-08-27T19:22:02.695Z,2.88
2022-08-27T19:24:39.967Z,2.88
2022-08-27T19:27:10.641Z,4.20
2022-08-27T19:29:40.839Z,2.53
2022-08-27T19:32:10.868Z,2.90
2022-08-27T19:34:40.916Z,2.95
2022-08-27T19:37:15.264Z,2.63
2022-08-27T19:39:46.684Z,3.08
2022-08-27T19:42:16.969Z,3.80
2022-08-27T19:44:47.414Z,3.47
2022-08-27T19:47:21.626Z,3.00
2022-08-27T19:49:51.804Z,2.90
2022-08-27T19:52:22.288Z,2.58
2022-08-27T19:55:12.669Z,8.55
2022-08-27T19:57:42.574Z,3.45
2022-08-27T20:00:15.940Z,2.75
2022-08-27T20:02:45.985Z,3.45
2022-08-27T20:05:18.380Z,4.25
2022-08-27T20:07:51.326Z,3.45
2022-08-27T20:10:25.847Z,2.90
2022-08-27T20:13:07.352Z,4.50
2022-08-27T20:15:38.300Z,8.48
2022-08-27T20:18:09.143Z,5.70
2022-08-27T20:20:39.472Z,4.93
2022-08-27T20:23:10.220Z,4.13
2022-08-27T20:25:40.037Z,4.13
2022-08-27T20:28:37.279Z,5.60
2022-08-27T20:31:00.582Z,3.90
2022-08-27T20:33:30.400Z,4.60
2022-08-27T20:36:01.031Z,3.80
2022-08-27T20:38:31.409Z,5.68
2022-08-27T20:41:01.147Z,5.07
2022-08-27T20:43:31.113Z,4.10
2022-08-27T20:46:02.581Z,3.40
2022-08-27T20:48:32.860Z,3.70
2022-08-27T20:51:02.741Z,4.32
2022-08-27T20:53:32.569Z,4.10
2022-08-27T20:56:02.414Z,3.60
2022-08-27T20:58:50.370Z,3.15
2022-08-27T21:01:20.759Z,4.25
2022-08-27T21:03:51.866Z,3.75
2022-08-27T21:06:26.341Z,4.07
2022-08-27T21:08:56.756Z,4.40
2022-08-27T21:11:26.609Z,4.07
2022-08-27T21:13:56.866Z,3.90
2022-08-27T21:16:27.492Z,3.72
2022-08-27T21:18:57.660Z,3.53
2022-08-27T21:21:27.469Z,3.80
2022-08-27T21:23:57.299Z,4.47
2022-08-27T21:26:27.035Z,3.80
2022-08-27T21:28:56.762Z,4.13
2022-08-27T21:31:27.232Z,4.05
2022-08-27T21:33:57.180Z,4.63
2022-08-27T21:36:27.209Z,3.92
2022-08-27T21:38:57.064Z,4.47
2022-08-27T21:41:26.879Z,4.60
2022-08-27T21:43:56.740Z,5.00
2022-08-27T21:46:26.633Z,4.25
2022-08-27T21:48:59.131Z,4.40
2022-08-27T21:51:29.857Z,5.03
2022-08-27T21:54:03.683Z,4.97
2022-08-27T21:56:35.499Z,4.63
2022-08-27T21:59:05.395Z,4.55
2022-08-27T22:01:35.240Z,4.40
2022-08-27T22:04:05.484Z,4.70
2022-08-27T22:06:38.955Z,4.25
2022-08-27T22:09:09.217Z,3.97
2022-08-27T22:11:39.448Z,3.55
2022-08-27T22:14:09.368Z,4.53
2022-08-27T22:16:43.056Z,3.60
2022-08-27T22:19:13.083Z,4.15
2022-08-27T22:21:42.991Z,3.78
2022-08-27T22:24:13.062Z,4.82
2022-08-27T22:26:43.574Z,4.72
2022-08-27T22:29:15.103Z,5.30
2022-08-27T22:31:46.454Z,4.40
2022-08-27T22:34:21.562Z,3.65
2022-08-27T22:36:51.530Z,3.97
2022-08-27T22:39:21.721Z,4.50
2022-08-27T22:41:55.934Z,4.40
2022-08-27T22:44:26.837Z,4.18
2022-08-27T22:46:57.662Z,4.70
2022-08-27T22:49:30.621Z,4.22
2022-08-27T22:52:00.742Z,3.47
2022-08-27T22:54:30.510Z,4.60
2022-08-27T22:57:00.286Z,4.85
2022-08-27T22:59:30.479Z,4.55
2022-08-27T23:02:00.608Z,7.22
2022-08-27T23:04:53.699Z,6.38
2022-08-27T23:07:22.540Z,5.40
2022-08-27T23:09:52.503Z,6.57
2022-08-27T23:12:23.196Z,7.22
2022-08-27T23:14:54.565Z,7.28
2022-08-27T23:17:25.438Z,7.15
2022-08-27T23:19:58.730Z,8.35
2022-08-27T23:22:28.512Z,8.23
2022-08-27T23:25:18.541Z,7.68
2022-08-27T23:27:48.825Z,9.30
2022-08-27T23:30:19.494Z,9.30
2022-08-27T23:32:53.811Z,9.52
2022-08-27T23:35:26.130Z,8.82
2022-08-27T23:37:56.745Z,9.80
2022-08-27T23:40:27.221Z,9.07
2022-08-27T23:42:57.108Z,10.52
2022-08-27T23:45:27.964Z,10.40
2022-08-27T23:48:01.318Z,10.38
2022-08-27T23:50:34.197Z,9.23
2022-08-27T23:53:06.150Z,10.07
2022-08-27T23:55:37.448Z,8.13
2022-08-27T23:58:08.869Z,9.48
